createdAt,value
2023-07-01T00:00:54.448Z,12.74
2023-07-01T00:01:54.493Z,12.79
2023-07-01T00:02:54.571Z,12.8
2023-07-01T00:03:54.592Z,12.82
2023-07-01T00:04:54.589Z,12.85
2023-07-01T00:05:54.498Z,12.85
2023-07-01T00:06:54.505Z,12.87
2023-07-01T00:07:54.544Z,12.87
2023-07-01T00:08:54.590Z,12.9
2023-07-01T00:09:54.596Z,12.9
2023-07-01T00:10:54.618Z,12.91
2023-07-01T00:11:54.638Z,12.92
2023-07-01T00:12:54.669Z,12.91
2023-07-01T00:13:54.688Z,12.93
2023-07-01T00:14:54.729Z,12.94
2023-07-01T00:15:54.770Z,12.94
2023-07-01T00:16:54.762Z,12.94
2023-07-01T00:17:54.862Z,12.94
2023-07-01T00:18:54.810Z,12.94
2023-07-01T00:19:54.822Z,12.96
2023-07-01T00:20:54.823Z,12.96
2023-07-01T00:21:54.852Z,12.96
2023-07-01T00:22:54.865Z,12.97
2023-07-01T00:23:54.870Z,12.96
2023-07-01T00:24:54.896Z,12.96
2023-07-01T00:25:54.882Z,12.94
2023-07-01T00:26:54.884Z,12.98
2023-07-01T00:27:54.893Z,12.99
2023-07-01T00:28:54.917Z,12.97
2023-07-01T00:29:54.961Z,12.94
2023-07-01T00:30:54.980Z,12.9
2023-07-01T00:31:55.023Z,12.89
2023-07-01T00:32:55.035Z,12.89
2023-07-01T00:33:55.047Z,12.91
2023-07-01T00:34:55.102Z,12.89
2023-07-01T00:35:55.089Z,12.89
2023-07-01T00:36:54.100Z,12.89
2023-07-01T00:37:54.121Z,12.89
2023-07-01T00:38:54.181Z,12.96
2023-07-01T00:39:54.147Z,12.98
2023-07-01T00:40:54.173Z,12.96
2023-07-01T00:41:54.186Z,12.91
2023-07-01T00:42:54.199Z,12.89
2023-07-01T00:43:54.202Z,12.9
2023-07-01T00:44:54.224Z,12.94
2023-07-01T00:45:54.227Z,12.96
2023-07-01T00:46:54.219Z,12.96
2023-07-01T00:47:54.263Z,12.94
2023-07-01T00:48:54.228Z,12.96
2023-07-01T00:49:54.273Z,12.96
2023-07-01T00:50:54.332Z,12.97
2023-07-01T00:51:54.311Z,12.97
2023-07-01T00:52:54.334Z,12.96
2023-07-01T00:53:54.348Z,12.94
2023-07-01T00:54:54.388Z,12.94
2023-07-01T00:55:54.412Z,12.9
2023-07-01T00:56:54.461Z,12.89
2023-07-01T00:57:54.436Z,12.86
2023-07-01T00:58:54.448Z,12.84
2023-07-01T00:59:54.454Z,12.83
2023-07-01T01:00:54.464Z,12.8
2023-07-01T01:01:54.582Z,12.8
2023-07-01T01:02:54.537Z,12.8
2023-07-01T01:03:54.498Z,12.81
2023-07-01T01:04:54.522Z,12.8
2023-07-01T01:05:54.504Z,12.83
2023-07-01T01:06:54.563Z,12.83
2023-07-01T01:07:54.558Z,12.85
2023-07-01T01:08:54.579Z,12.85
2023-07-01T01:09:54.621Z,12.83
2023-07-01T01:10:54.627Z,12.85
2023-07-01T01:11:54.664Z,12.85
2023-07-01T01:12:54.681Z,12.86
2023-07-01T01:13:54.704Z,12.88
2023-07-01T01:14:54.726Z,12.88
2023-07-01T01:15:54.756Z,12.88
2023-07-01T01:16:54.778Z,12.88
2023-07-01T01:17:54.813Z,12.86
2023-07-01T01:18:54.808Z,12.89
2023-07-01T01:19:54.826Z,12.89
2023-07-01T01:20:54.817Z,12.89
2023-07-01T01:21:54.853Z,12.86
2023-07-01T01:22:56.144Z,12.89
2023-07-01T01:23:54.863Z,12.88
2023-07-01T01:24:54.889Z,12.85
2023-07-01T01:25:54.879Z,12.86
2023-07-01T01:26:54.899Z,12.85
2023-07-01T01:27:54.898Z,12.82
2023-07-01T01:28:54.921Z,12.83
2023-07-01T01:29:54.959Z,12.83
2023-07-01T01:30:54.999Z,12.85
2023-07-01T01:31:54.984Z,12.83
2023-07-01T01:32:55.056Z,12.83
2023-07-01T01:33:55.037Z,12.83
2023-07-01T01:34:55.070Z,12.81
2023-07-01T01:35:55.079Z,12.81
2023-07-01T01:36:54.092Z,12.82
2023-07-01T01:37:54.119Z,12.81
2023-07-01T01:38:54.141Z,12.81
2023-07-01T01:39:54.166Z,12.8
2023-07-01T01:40:54.173Z,12.8
2023-07-01T01:41:54.190Z,12.81
2023-07-01T01:42:54.200Z,12.81
2023-07-01T01:43:54.228Z,12.82
2023-07-01T01:44:54.234Z,12.8
2023-07-01T01:45:54.235Z,12.81
2023-07-01T01:46:54.308Z,12.81
2023-07-01T01:47:54.266Z,12.84
2023-07-01T01:48:54.263Z,12.84
2023-07-01T01:49:54.277Z,12.84
2023-07-01T01:50:54.299Z,12.84
2023-07-01T01:51:54.346Z,12.84
2023-07-01T01:52:54.372Z,12.84
2023-07-01T01:53:54.389Z,12.84
2023-07-01T01:54:54.397Z,12.86
2023-07-01T01:55:54.426Z,12.86
2023-07-01T01:56:54.443Z,12.87
2023-07-01T01:57:54.493Z,12.86
2023-07-01T01:58:54.501Z,12.86
2023-07-01T01:59:54.530Z,12.88
2023-07-01T02:00:54.537Z,12.88
2023-07-01T02:01:54.594Z,12.89
2023-07-01T02:02:54.700Z,12.88
2023-07-01T02:03:54.886Z,12.86
2023-07-01T02:04:54.869Z,12.84
2023-07-01T02:05:54.595Z,12.84
2023-07-01T02:06:54.613Z,12.84
2023-07-01T02:07:54.639Z,12.83
2023-07-01T02:08:54.614Z,12.81
2023-07-01T02:09:54.637Z,12.81
2023-07-01T02:10:54.672Z,12.81
2023-07-01T02:11:54.690Z,12.81
2023-07-01T02:12:54.729Z,12.81
2023-07-01T02:13:54.722Z,12.83
2023-07-01T02:14:54.752Z,12.84
2023-07-01T02:15:54.779Z,12.84
2023-07-01T02:16:54.844Z,12.84
2023-07-01T02:17:54.885Z,12.84
2023-07-01T02:18:54.845Z,12.84
2023-07-01T02:19:54.862Z,12.82
2023-07-01T02:20:54.874Z,12.8
2023-07-01T02:21:54.887Z,12.8
2023-07-01T02:22:54.897Z,12.83
2023-07-01T02:23:54.914Z,12.83
2023-07-01T02:24:54.936Z,12.83
2023-07-01T02:25:54.939Z,12.84
2023-07-01T02:26:54.944Z,12.86
2023-07-01T02:27:54.943Z,12.84
2023-07-01T02:28:54.945Z,12.83
2023-07-01T02:29:54.970Z,12.83
2023-07-01T02:30:55.011Z,12.83
2023-07-01T02:31:55.018Z,12.83
2023-07-01T02:32:55.049Z,12.83
2023-07-01T02:33:55.063Z,12.83
2023-07-01T02:34:55.076Z,12.83
2023-07-01T02:35:54.101Z,12.83
2023-07-01T02:36:54.120Z,12.83
2023-07-01T02:37:54.152Z,12.84
2023-07-01T02:38:54.151Z,12.89
2023-07-01T02:39:54.183Z,12.89
2023-07-01T02:40:54.203Z,12.9
2023-07-01T02:41:54.222Z,12.89
2023-07-01T02:42:54.223Z,12.94
2023-07-01T02:43:54.233Z,12.97
2023-07-01T02:44:54.241Z,12.93
2023-07-01T02:45:54.323Z,12.91
2023-07-01T02:46:54.287Z,12.9
2023-07-01T02:47:54.314Z,12.89
2023-07-01T02:48:54.294Z,12.87
2023-07-01T02:49:54.317Z,12.87
2023-07-01T02:50:54.341Z,12.87
2023-07-01T02:51:54.362Z,12.87
2023-07-01T02:52:54.410Z,12.84
2023-07-01T02:53:54.442Z,12.84
2023-07-01T02:54:54.436Z,12.87
2023-07-01T02:55:54.478Z,12.88
2023-07-01T02:56:54.482Z,12.89
2023-07-01T02:57:54.510Z,12.89
2023-07-01T02:58:54.523Z,12.88
2023-07-01T02:59:54.540Z,12.9
2023-07-01T03:00:54.553Z,12.87
2023-07-01T03:01:54.585Z,12.85
2023-07-01T03:02:54.632Z,12.89
2023-07-01T03:03:56.634Z,12.86
2023-07-01T03:04:54.664Z,12.82
2023-07-01T03:05:54.634Z,12.82
2023-07-01T03:06:54.633Z,12.81
2023-07-01T03:07:54.644Z,12.77
2023-07-01T03:08:54.643Z,12.77
2023-07-01T03:09:54.658Z,12.78
2023-07-01T03:10:54.699Z,12.75
2023-07-01T03:11:54.710Z,12.76
2023-07-01T03:12:54.739Z,12.76
2023-07-01T03:13:54.761Z,12.75
2023-07-01T03:14:54.769Z,12.75
2023-07-01T03:15:54.879Z,12.72
2023-07-01T03:16:54.937Z,12.71
2023-07-01T03:17:54.958Z,12.59
2023-07-01T03:18:54.858Z,12.59
2023-07-01T03:19:54.889Z,12.59
2023-07-01T03:20:54.901Z,12.57
2023-07-01T03:21:54.930Z,12.61
2023-07-01T03:22:54.966Z,12.61
2023-07-01T03:23:54.964Z,12.62
2023-07-01T03:24:54.972Z,12.64
2023-07-01T03:25:54.987Z,12.64
2023-07-01T03:26:54.991Z,12.61
2023-07-01T03:27:55.067Z,12.62
2023-07-01T03:28:55.003Z,12.62
2023-07-01T03:29:55.004Z,12.62
2023-07-01T03:30:55.037Z,12.62
2023-07-01T03:31:55.105Z,12.6
2023-07-01T03:32:55.109Z,12.6
2023-07-01T03:33:54.141Z,12.56
2023-07-01T03:34:54.141Z,12.57
2023-07-01T03:35:54.161Z,12.55
2023-07-01T03:36:54.187Z,12.57
2023-07-01T03:37:54.223Z,12.59
2023-07-01T03:38:54.252Z,12.57
2023-07-01T03:39:54.256Z,12.58
2023-07-01T03:40:54.267Z,12.6
2023-07-01T03:41:54.295Z,12.6
2023-07-01T03:42:54.326Z,12.62
2023-07-01T03:43:54.326Z,12.57
2023-07-01T03:44:54.346Z,12.57
2023-07-01T03:45:54.451Z,12.58
2023-07-01T03:46:54.603Z,12.58
2023-07-01T03:47:54.393Z,12.6
2023-07-01T03:48:54.388Z,12.6
2023-07-01T03:49:54.394Z,12.6
2023-07-01T03:50:54.406Z,12.62
2023-07-01T03:51:54.409Z,12.59
2023-07-01T03:52:54.437Z,12.57
2023-07-01T03:53:54.449Z,12.62
2023-07-01T03:54:54.483Z,12.6
2023-07-01T03:55:54.503Z,12.61
2023-07-01T03:56:54.541Z,12.59
2023-07-01T03:57:54.553Z,12.59
2023-07-01T03:58:54.604Z,12.56
2023-07-01T03:59:54.600Z,12.56
2023-07-01T04:00:54.639Z,12.53
2023-07-01T04:01:54.700Z,12.54
2023-07-01T04:02:54.757Z,12.53
2023-07-01T04:03:54.905Z,12.56
2023-07-01T04:04:54.818Z,12.56
2023-07-01T04:05:54.759Z,12.51
2023-07-01T04:06:54.757Z,12.52
2023-07-01T04:07:54.782Z,12.52
2023-07-01T04:08:54.785Z,12.53
2023-07-01T04:09:54.825Z,12.53
2023-07-01T04:10:54.817Z,12.51
2023-07-01T04:11:54.843Z,12.55
2023-07-01T04:12:54.838Z,12.53
2023-07-01T04:13:54.851Z,12.5
2023-07-01T04:14:54.843Z,12.53
2023-07-01T04:15:54.844Z,12.53
2023-07-01T04:16:54.918Z,12.53
2023-07-01T04:17:54.955Z,12.53
2023-07-01T04:18:54.919Z,12.56
2023-07-01T04:19:54.956Z,12.55
2023-07-01T04:20:54.974Z,12.54
2023-07-01T04:21:55.002Z,12.53
2023-07-01T04:22:55.028Z,12.54
2023-07-01T04:23:55.037Z,12.55
2023-07-01T04:24:55.067Z,12.55
2023-07-01T04:25:55.088Z,12.56
2023-07-01T04:26:54.166Z,12.53
2023-07-01T04:27:54.140Z,12.5
2023-07-01T04:28:54.153Z,12.47
2023-07-01T04:29:54.146Z,12.41
2023-07-01T04:30:54.202Z,12.33
2023-07-01T04:31:54.182Z,12.26
2023-07-01T04:32:54.245Z,12.25
2023-07-01T04:33:54.205Z,12.22
2023-07-01T04:34:54.216Z,12.2
2023-07-01T04:35:54.226Z,12.19
2023-07-01T04:36:54.243Z,12.15
2023-07-01T04:37:54.220Z,12.12
2023-07-01T04:38:54.240Z,12.07
2023-07-01T04:39:54.269Z,12.06
2023-07-01T04:40:54.600Z,12.09
2023-07-01T04:41:54.314Z,12.12
2023-07-01T04:42:54.341Z,12.12
2023-07-01T04:43:54.376Z,12.1
2023-07-01T04:44:54.370Z,12.12
2023-07-01T04:45:54.389Z,12.14
2023-07-01T04:46:54.444Z,12.09
2023-07-01T04:47:54.547Z,12.09
2023-07-01T04:48:54.479Z,12.08
2023-07-01T04:49:54.553Z,12.05
2023-07-01T04:50:54.489Z,12.05
2023-07-01T04:51:54.517Z,12.04
2023-07-01T04:52:54.516Z,12.01
2023-07-01T04:53:54.527Z,12.01
2023-07-01T04:54:54.565Z,12
2023-07-01T04:55:54.595Z,12.01
2023-07-01T04:56:54.551Z,12.04
2023-07-01T04:57:54.581Z,11.96
2023-07-01T04:58:54.588Z,11.97
2023-07-01T04:59:54.615Z,11.96
2023-07-01T05:00:54.632Z,11.92
2023-07-01T05:01:54.713Z,11.92
2023-07-01T05:02:54.849Z,11.83
2023-07-01T05:03:54.813Z,11.81
2023-07-01T05:04:54.850Z,11.81
2023-07-01T05:05:54.754Z,11.78
2023-07-01T05:06:54.805Z,11.73
2023-07-01T05:07:54.847Z,11.65
2023-07-01T05:08:54.838Z,11.61
2023-07-01T05:09:54.847Z,11.6
2023-07-01T05:10:54.862Z,11.58
2023-07-01T05:11:54.873Z,11.57
2023-07-01T05:12:54.903Z,11.48
2023-07-01T05:13:54.935Z,11.51
2023-07-01T05:14:54.920Z,11.43
2023-07-01T05:15:54.926Z,11.37
2023-07-01T05:16:55.020Z,11.4
2023-07-01T05:17:54.970Z,11.41
2023-07-01T05:18:54.989Z,11.4
2023-07-01T05:19:54.972Z,11.38
2023-07-01T05:20:54.989Z,11.43
2023-07-01T05:21:55.124Z,11.42
2023-07-01T05:22:55.033Z,11.42
2023-07-01T05:23:55.059Z,11.43
2023-07-01T05:24:55.074Z,11.41
2023-07-01T05:25:54.127Z,11.4
2023-07-01T05:26:54.134Z,11.37
2023-07-01T05:27:54.147Z,11.39
2023-07-01T05:28:54.194Z,11.39
2023-07-01T05:29:54.204Z,11.39
2023-07-01T05:30:54.224Z,11.37
2023-07-01T05:31:54.235Z,11.42
2023-07-01T05:32:54.268Z,11.41
2023-07-01T05:33:54.300Z,11.43
2023-07-01T05:34:54.282Z,11.36
2023-07-01T05:35:54.295Z,11.31
2023-07-01T05:36:54.309Z,11.35
2023-07-01T05:37:54.317Z,11.36
2023-07-01T05:38:54.328Z,11.31
2023-07-01T05:39:54.330Z,11.32
2023-07-01T05:40:54.344Z,11.31
2023-07-01T05:41:54.354Z,11.26
2023-07-01T05:42:54.375Z,11.22
2023-07-01T05:43:54.427Z,11.21
2023-07-01T05:44:54.448Z,11.25
2023-07-01T05:45:54.550Z,11.25
2023-07-01T05:46:54.492Z,11.23
2023-07-01T05:47:54.520Z,11.23
2023-07-01T05:48:54.548Z,11.21
2023-07-01T05:49:54.536Z,11.22
2023-07-01T05:50:54.556Z,11.24
2023-07-01T05:51:54.578Z,11.39
2023-07-01T05:52:54.602Z,11.32
2023-07-01T05:53:54.645Z,11.22
2023-07-01T05:54:54.645Z,11.21
2023-07-01T05:55:54.640Z,11.27
2023-07-01T05:56:54.673Z,11.13
2023-07-01T05:57:54.664Z,11.07
2023-07-01T05:58:54.704Z,11.15
2023-07-01T05:59:54.695Z,11.19
2023-07-01T06:00:54.688Z,11.21
2023-07-01T06:01:54.767Z,11.21
2023-07-01T06:02:54.762Z,11.2
2023-07-01T06:03:54.775Z,11.16
2023-07-01T06:04:54.772Z,11.16
2023-07-01T06:05:54.776Z,11.24
2023-07-01T06:06:54.794Z,11.17
2023-07-01T06:07:54.820Z,11.13
2023-07-01T06:08:54.842Z,11.18
2023-07-01T06:09:54.872Z,10.97
2023-07-01T06:10:54.885Z,10.95
2023-07-01T06:11:54.906Z,10.91
2023-07-01T06:12:54.933Z,10.58
2023-07-01T06:13:54.958Z,10.56
2023-07-01T06:14:54.962Z,10.25
2023-07-01T06:15:54.979Z,10.2
2023-07-01T06:16:55.070Z,10.16
2023-07-01T06:17:55.039Z,9.971
2023-07-01T06:18:55.006Z,9.69
2023-07-01T06:19:55.019Z,9.5
2023-07-01T06:20:55.032Z,9.041
2023-07-01T06:21:55.030Z,8.96
2023-07-01T06:22:55.035Z,8.841
2023-07-01T06:23:55.099Z,8.506
2023-07-01T06:24:55.094Z,8.499
2023-07-01T06:25:54.121Z,8.152
2023-07-01T06:26:54.139Z,8.234
2023-07-01T06:27:54.156Z,8.061
2023-07-01T06:28:54.206Z,8.144
2023-07-01T06:29:54.213Z,8.104
2023-07-01T06:30:54.266Z,8.015
2023-07-01T06:31:54.266Z,8.056
2023-07-01T06:32:54.312Z,7.966
2023-07-01T06:33:54.324Z,7.759
2023-07-01T06:34:54.316Z,7.833
2023-07-01T06:35:54.328Z,7.704
2023-07-01T06:36:54.354Z,7.915
2023-07-01T06:37:54.372Z,7.665
2023-07-01T06:38:54.396Z,7.633
2023-07-01T06:39:54.384Z,7.565
2023-07-01T06:40:54.393Z,7.402
2023-07-01T06:41:54.398Z,6.911
2023-07-01T06:42:54.442Z,7.095
2023-07-01T06:43:54.409Z,7.264
2023-07-01T06:44:54.433Z,6.928
2023-07-01T06:45:54.491Z,6.987
2023-07-01T06:46:54.477Z,6.902
2023-07-01T06:47:54.605Z,6.869
2023-07-01T06:48:54.523Z,7.004
2023-07-01T06:49:54.549Z,7.031
2023-07-01T06:50:54.572Z,6.488
2023-07-01T06:51:54.588Z,6.311
2023-07-01T06:52:54.604Z,6.352
2023-07-01T06:53:54.641Z,6.018
2023-07-01T06:54:54.653Z,5.774
2023-07-01T06:55:54.664Z,5.828
2023-07-01T06:56:54.684Z,5.747
2023-07-01T06:57:54.689Z,5.434
2023-07-01T06:58:54.731Z,5.591
2023-07-01T06:59:54.727Z,5.541
2023-07-01T07:00:54.799Z,5.593
2023-07-01T07:01:54.731Z,5.611
2023-07-01T07:02:54.900Z,5.879
2023-07-01T07:03:54.781Z,5.529
2023-07-01T07:04:54.870Z,5.513
2023-07-01T07:05:54.782Z,5.383
2023-07-01T07:06:54.814Z,5.371
2023-07-01T07:07:54.825Z,5.242
2023-07-01T07:08:54.880Z,5.336
2023-07-01T07:09:54.868Z,5.395
2023-07-01T07:10:54.890Z,5.329
2023-07-01T07:11:54.916Z,5.183
2023-07-01T07:12:54.932Z,5.215
2023-07-01T07:13:54.984Z,4.908
2023-07-01T07:14:54.978Z,5.054
2023-07-01T07:15:55.027Z,5.147
2023-07-01T07:16:55.014Z,4.922
2023-07-01T07:17:55.193Z,4.795
2023-07-01T07:18:55.104Z,4.776
2023-07-01T07:19:55.040Z,5.376
2023-07-01T07:20:55.056Z,5.095
2023-07-01T07:21:55.076Z,4.923
2023-07-01T07:22:55.062Z,5.265
2023-07-01T07:23:55.062Z,5.445
2023-07-01T07:24:55.244Z,5.514
2023-07-01T07:25:54.088Z,5.776
2023-07-01T07:26:54.123Z,5.682
2023-07-01T07:27:54.147Z,5.638
2023-07-01T07:28:54.167Z,5.769
2023-07-01T07:29:54.206Z,5.673
2023-07-01T07:30:54.245Z,5.834
2023-07-01T07:31:54.240Z,6.085
2023-07-01T07:32:54.267Z,5.999
2023-07-01T07:33:54.311Z,6.274
2023-07-01T07:34:54.291Z,5.975
2023-07-01T07:35:54.318Z,5.96
2023-07-01T07:36:54.339Z,5.571
2023-07-01T07:37:54.356Z,5.694
2023-07-01T07:38:54.392Z,5.8
2023-07-01T07:39:54.406Z,5.366
2023-07-01T07:40:54.406Z,5.469
2023-07-01T07:41:54.423Z,5.03
2023-07-01T07:42:54.431Z,5.262
2023-07-01T07:43:54.463Z,5.38
2023-07-01T07:44:54.448Z,5.179
2023-07-01T07:45:54.442Z,4.99
2023-07-01T07:46:54.501Z,5.021
2023-07-01T07:47:54.507Z,4.913
2023-07-01T07:48:54.542Z,4.766
2023-07-01T07:49:54.570Z,4.78
2023-07-01T07:50:54.571Z,4.254
2023-07-01T07:51:54.603Z,4.078
2023-07-01T07:52:54.614Z,4.482
2023-07-01T07:53:54.659Z,4.262
2023-07-01T07:54:54.662Z,4.425
2023-07-01T07:55:54.734Z,4.223
2023-07-01T07:56:54.707Z,4.478
2023-07-01T07:57:54.722Z,4.3
2023-07-01T07:58:54.765Z,4.395
2023-07-01T07:59:54.767Z,4.114
2023-07-01T08:00:54.785Z,4.21
2023-07-01T08:01:54.859Z,4.228
2023-07-01T08:02:54.836Z,4.489
2023-07-01T08:03:55.066Z,4.355
2023-07-01T08:04:54.941Z,4.044
2023-07-01T08:05:54.851Z,4.286
2023-07-01T08:06:54.877Z,4.467
2023-07-01T08:07:54.884Z,3.656
2023-07-01T08:08:54.908Z,3.751
2023-07-01T08:09:54.882Z,4.116
2023-07-01T08:10:54.907Z,3.466
2023-07-01T08:11:54.960Z,3.56
2023-07-01T08:12:54.969Z,3.458
2023-07-01T08:13:55.007Z,3.68
2023-07-01T08:14:55.030Z,3.661
2023-07-01T08:15:55.033Z,3.834
2023-07-01T08:16:55.194Z,3.768
2023-07-01T08:17:55.105Z,3.778
2023-07-01T08:18:54.178Z,3.876
2023-07-01T08:19:54.118Z,4.078
2023-07-01T08:20:54.138Z,3.921
2023-07-01T08:21:54.153Z,3.269
2023-07-01T08:22:56.558Z,3.425
2023-07-01T08:23:54.189Z,3.523
2023-07-01T08:24:54.211Z,3.452
2023-07-01T08:25:54.219Z,3.759
2023-07-01T08:26:54.222Z,3.555
2023-07-01T08:27:54.259Z,3.645
2023-07-01T08:28:54.262Z,3.767
2023-07-01T08:29:54.255Z,3.57
2023-07-01T08:30:54.326Z,3.68
2023-07-01T08:31:54.290Z,3.789
2023-07-01T08:32:54.346Z,3.741
2023-07-01T08:33:54.358Z,3.765
2023-07-01T08:34:54.361Z,4.148
2023-07-01T08:35:54.404Z,4.034
2023-07-01T08:36:54.436Z,4.187
2023-07-01T08:37:54.426Z,4.344
2023-07-01T08:38:54.455Z,3.826
2023-07-01T08:39:54.478Z,3.384
2023-07-01T08:40:54.512Z,3.355
2023-07-01T08:41:54.518Z,3.42
2023-07-01T08:42:54.539Z,4.017
2023-07-01T08:43:54.644Z,4.343
2023-07-01T08:44:54.578Z,3.944
2023-07-01T08:45:54.679Z,4.012
2023-07-01T08:46:54.615Z,3.866
2023-07-01T08:47:54.688Z,3.983
2023-07-01T08:48:54.658Z,4.113
2023-07-01T08:49:54.647Z,4.146
2023-07-01T08:50:54.637Z,3.883
2023-07-01T08:51:54.648Z,3.926
2023-07-01T08:52:54.661Z,3.507
2023-07-01T08:53:54.691Z,3.266
2023-07-01T08:54:54.684Z,3.367
2023-07-01T08:55:54.717Z,3.343
2023-07-01T08:56:54.738Z,3.355
2023-07-01T08:57:54.763Z,3.663
2023-07-01T08:58:54.791Z,3.762
2023-07-01T08:59:54.832Z,4.075
2023-07-01T09:00:54.834Z,4.18
2023-07-01T09:01:54.880Z,4.574
2023-07-01T09:02:54.944Z,4.511
2023-07-01T09:03:55.062Z,4.509
2023-07-01T09:04:54.964Z,4.955
2023-07-01T09:05:54.970Z,5.523
2023-07-01T09:06:54.982Z,5.645
2023-07-01T09:07:55.012Z,5.54
2023-07-01T09:08:55.033Z,5.612
2023-07-01T09:09:55.027Z,6.04
2023-07-01T09:10:55.069Z,5.992
2023-07-01T09:11:55.076Z,6.513
2023-07-01T09:12:55.085Z,6.321
2023-07-01T09:13:55.100Z,6.482
2023-07-01T09:14:55.080Z,6.803
2023-07-01T09:15:55.118Z,6.767
2023-07-01T09:16:54.103Z,7.084
2023-07-01T09:17:54.165Z,7.553
2023-07-01T09:18:54.189Z,7.482
2023-07-01T09:19:54.145Z,7.379
2023-07-01T09:20:54.187Z,7.804
2023-07-01T09:21:54.179Z,7.572
2023-07-01T09:22:54.204Z,7.684
2023-07-01T09:23:54.232Z,8.005
2023-07-01T09:24:54.249Z,7.778
2023-07-01T09:25:54.291Z,8.209
2023-07-01T09:26:54.289Z,8.283
2023-07-01T09:27:54.295Z,8.209
2023-07-01T09:28:54.324Z,8.424
2023-07-01T09:29:54.336Z,8.581
2023-07-01T09:30:54.363Z,8.549
2023-07-01T09:31:54.470Z,8.685
2023-07-01T09:32:54.416Z,8.863
2023-07-01T09:33:54.398Z,8.858
2023-07-01T09:34:54.402Z,8.927
2023-07-01T09:35:54.398Z,8.548
2023-07-01T09:36:54.426Z,8.503
2023-07-01T09:37:54.425Z,8.648
2023-07-01T09:38:54.479Z,9.173
2023-07-01T09:39:54.472Z,9.209
2023-07-01T09:40:54.518Z,9.543
2023-07-01T09:41:54.528Z,9.529
2023-07-01T09:42:54.561Z,9.393
2023-07-01T09:43:54.585Z,9.557
2023-07-01T09:44:54.590Z,9.903
2023-07-01T09:45:54.698Z,9.857
2023-07-01T09:46:54.624Z,9.674
2023-07-01T09:47:54.688Z,9.688
2023-07-01T09:48:54.697Z,9.797
2023-07-01T09:49:54.668Z,10.11
2023-07-01T09:50:54.671Z,10.03
2023-07-01T09:51:54.692Z,9.978
2023-07-01T09:52:54.887Z,10.01
2023-07-01T09:53:54.720Z,10.24
2023-07-01T09:54:54.713Z,10.16
2023-07-01T09:55:54.719Z,9.966
2023-07-01T09:56:54.749Z,9.209
2023-07-01T09:57:54.763Z,9.4
2023-07-01T09:58:54.834Z,10.23
2023-07-01T09:59:54.815Z,10.62
2023-07-01T10:00:54.852Z,10.52
2023-07-01T10:01:54.924Z,10.7
2023-07-01T10:02:55.026Z,10.54
2023-07-01T10:03:54.982Z,10.76
2023-07-01T10:04:54.954Z,10.62
2023-07-01T10:05:54.930Z,10.68
2023-07-01T10:06:54.985Z,10.62
2023-07-01T10:07:54.962Z,10.36
2023-07-01T10:08:55.012Z,10.72
2023-07-01T10:09:55.028Z,10.59
2023-07-01T10:10:55.004Z,10.42
2023-07-01T10:11:55.060Z,10.66
2023-07-01T10:12:55.027Z,10.52
2023-07-01T10:13:55.051Z,10.55
2023-07-01T10:14:55.049Z,10.44
2023-07-01T10:15:55.055Z,10.64
2023-07-01T10:16:55.134Z,10.75
2023-07-01T10:17:54.228Z,10.89
2023-07-01T10:18:54.142Z,10.68
2023-07-01T10:19:54.143Z,11.25
2023-07-01T10:20:54.158Z,11.49
2023-07-01T10:21:54.188Z,11.5
2023-07-01T10:22:54.209Z,11.55
2023-07-01T10:23:54.246Z,11.14
2023-07-01T10:24:54.260Z,11.38
2023-07-01T10:25:54.276Z,11.6
2023-07-01T10:26:54.294Z,10.83
2023-07-01T10:27:54.309Z,11.11
2023-07-01T10:28:54.377Z,11.14
2023-07-01T10:29:54.353Z,11.27
2023-07-01T10:30:54.455Z,11.43
2023-07-01T10:31:54.366Z,11.31
2023-07-01T10:32:54.419Z,11.1
2023-07-01T10:33:54.625Z,10.98
2023-07-01T10:34:54.484Z,11.01
2023-07-01T10:35:54.421Z,11.07
2023-07-01T10:36:54.436Z,11.05
2023-07-01T10:37:54.464Z,11.13
2023-07-01T10:38:54.485Z,11.23
2023-07-01T10:39:54.515Z,11.18
2023-07-01T10:40:54.500Z,11.16
2023-07-01T10:41:54.527Z,11.32
2023-07-01T10:42:54.541Z,11.24
2023-07-01T10:43:54.586Z,11.21
2023-07-01T10:44:54.587Z,11.29
2023-07-01T10:45:54.621Z,11.29
2023-07-01T10:46:54.684Z,11.34
2023-07-01T10:47:54.658Z,11.7
2023-07-01T10:48:54.660Z,11.89
2023-07-01T10:49:54.674Z,11.83
2023-07-01T10:50:54.699Z,11.73
2023-07-01T10:51:54.735Z,11.73
2023-07-01T10:52:54.718Z,11.47
2023-07-01T10:53:54.748Z,11.31
2023-07-01T10:54:54.738Z,11.56
2023-07-01T10:55:54.742Z,11.72
2023-07-01T10:56:54.747Z,12.02
2023-07-01T10:57:54.753Z,12.2
2023-07-01T10:58:54.799Z,12.09
2023-07-01T10:59:54.840Z,12.23
2023-07-01T11:00:54.852Z,11.94
2023-07-01T11:01:54.907Z,11.58
2023-07-01T11:02:55.026Z,11.75
2023-07-01T11:03:54.993Z,11.77
2023-07-01T11:04:55.025Z,11.92
2023-07-01T11:05:54.965Z,11.95
2023-07-01T11:06:54.982Z,11.85
2023-07-01T11:07:55.016Z,11.87
2023-07-01T11:08:55.060Z,11.94
2023-07-01T11:09:55.036Z,11.94
2023-07-01T11:10:55.057Z,11.95
2023-07-01T11:11:55.072Z,11.86
2023-07-01T11:12:54.091Z,11.89
2023-07-01T11:13:54.122Z,11.72
2023-07-01T11:14:54.124Z,11.12
2023-07-01T11:15:54.147Z,11.17
2023-07-01T11:16:54.171Z,11.58
2023-07-01T11:17:54.232Z,11.61
2023-07-01T11:18:54.178Z,11.44
2023-07-01T11:19:54.157Z,11.28
2023-07-01T11:20:54.185Z,11.31
2023-07-01T11:21:54.212Z,11.17
2023-07-01T11:22:54.272Z,11.22
2023-07-01T11:23:54.291Z,11.5
2023-07-01T11:24:54.305Z,11.42
2023-07-01T11:25:54.321Z,11.58
2023-07-01T11:26:54.340Z,11.99
2023-07-01T11:27:54.369Z,11.48
2023-07-01T11:28:54.415Z,11.46
2023-07-01T11:29:54.451Z,11.04
2023-07-01T11:30:54.446Z,11.32
2023-07-01T11:31:54.718Z,11.54
2023-07-01T11:32:54.483Z,11.98
2023-07-01T11:33:54.467Z,12.09
2023-07-01T11:34:54.477Z,11.98
2023-07-01T11:35:54.498Z,11.79
2023-07-01T11:36:54.544Z,11.52
2023-07-01T11:37:54.521Z,11.39
2023-07-01T11:38:54.518Z,11.35
2023-07-01T11:39:54.674Z,11.24
2023-07-01T11:40:54.530Z,11.29
2023-07-01T11:41:54.588Z,11.29
2023-07-01T11:42:54.573Z,11.15
2023-07-01T11:43:54.594Z,10.65
2023-07-01T11:44:54.644Z,10.91
2023-07-01T11:45:54.679Z,11.23
2023-07-01T11:46:54.702Z,11.04
2023-07-01T11:47:54.771Z,11.05
2023-07-01T11:48:54.713Z,11.31
2023-07-01T11:49:54.735Z,11.27
2023-07-01T11:50:54.761Z,11.27
2023-07-01T11:51:54.776Z,11.02
2023-07-01T11:52:54.791Z,10.91
2023-07-01T11:53:54.826Z,10.88
2023-07-01T11:54:54.820Z,11.15
2023-07-01T11:55:54.831Z,10.76
2023-07-01T11:56:54.845Z,10.7
2023-07-01T11:57:54.842Z,10.83
2023-07-01T11:59:01.280Z,11.11
2023-07-01T11:59:54.865Z,10.92
2023-07-01T12:00:54.882Z,10.98
2023-07-01T12:01:54.927Z,10.91
2023-07-01T12:02:54.937Z,10.61
2023-07-01T12:03:55.041Z,10.77
2023-07-01T12:04:55.025Z,11.08
2023-07-01T12:05:55.040Z,11.31
2023-07-01T12:06:55.024Z,11.01
2023-07-01T12:07:55.039Z,11.1
2023-07-01T12:09:06.802Z,11.51
2023-07-01T12:09:55.094Z,11.81
2023-07-01T12:10:54.125Z,10.97
2023-07-01T12:11:54.121Z,11.12
2023-07-01T12:12:54.128Z,11.26
2023-07-01T12:13:54.165Z,11.12
2023-07-01T12:14:54.186Z,11.37
2023-07-01T12:15:54.226Z,11
2023-07-01T12:16:54.183Z,11.07
2023-07-01T12:17:54.283Z,11.19
2023-07-01T12:18:54.200Z,10.84
2023-07-01T12:19:54.209Z,11
2023-07-01T12:20:54.222Z,11.02
2023-07-01T12:21:54.249Z,11.07
2023-07-01T12:22:54.288Z,11.09
2023-07-01T12:23:54.307Z,11.22
2023-07-01T12:24:54.331Z,11.12
2023-07-01T12:25:54.339Z,10.91
2023-07-01T12:26:54.400Z,11.08
2023-07-01T12:27:54.397Z,10.99
2023-07-01T12:28:54.434Z,10.49
2023-07-01T12:29:54.430Z,10.4
2023-07-01T12:30:54.456Z,10.52
2023-07-01T12:31:54.499Z,10.65
2023-07-01T12:32:54.545Z,10.35
2023-07-01T12:33:54.519Z,10.02
2023-07-01T12:34:54.530Z,10.03
2023-07-01T12:35:54.557Z,9.908
2023-07-01T12:36:54.556Z,9.807
2023-07-01T12:37:54.574Z,9.667
2023-07-01T12:38:54.601Z,9.882
2023-07-01T12:39:54.591Z,9.626
2023-07-01T12:40:54.626Z,9.873
2023-07-01T12:41:54.613Z,9.658
2023-07-01T12:42:54.621Z,9.6
2023-07-01T12:43:54.672Z,9.506
2023-07-01T12:44:54.669Z,9.632
2023-07-01T12:45:54.747Z,9.442
2023-07-01T12:46:54.724Z,9.567
2023-07-01T12:47:54.768Z,9.63
2023-07-01T12:48:54.813Z,9.789
2023-07-01T12:49:54.790Z,9.822
2023-07-01T12:50:54.817Z,9.681
2023-07-01T12:51:54.843Z,9.894
2023-07-01T12:52:54.854Z,9.768
2023-07-01T12:54:07.601Z,9.83
2023-07-01T12:54:54.905Z,9.476
2023-07-01T12:55:54.917Z,9.611